Time;durP1;ratioP1;P1;durP2;ratioP2;P2;SDS_P1;SDS_P2;PMS_P1;PMS_P2;Temp;Humidity;BMP_temperature;BMP_pressure;BME280_temperature;BME280_humidity;BME280_pressure;Samples;Min_cycle;Max_cycle;Signal;HPM_P1;HPM_P2
2022/04/10 00:01:19;;;;;;;4.85;1.98;;;3.90;93.10;;;;;;5053292;28;20043;-66
2022/04/10 00:03:45;;;;;;;3.13;1.80;;;3.90;93.10;;;;;;5058821;28;20040;-65
2022/04/10 00:06:11;;;;;;;3.38;2.17;;;3.90;93.10;;;;;;5058355;28;20051;-66
2022/04/10 00:08:36;;;;;;;4.85;2.17;;;3.80;93.10;;;;;;5059407;28;20029;-66
2022/04/10 00:11:02;;;;;;;3.97;1.70;;;3.90;93.10;;;;;;5061149;28;20070;-66
2022/04/10 00:13:28;;;;;;;3.28;1.92;;;3.80;93.20;;;;;;5051233;28;20032;-66
2022/04/10 00:15:54;;;;;;;3.85;1.50;;;3.80;93.20;;;;;;5055142;28;20036;-66
2022/04/10 00:18:20;;;;;;;7.50;2.17;;;3.80;93.10;;;;;;5053806;28;20484;-66
2022/04/10 00:20:46;;;;;;;2.97;2.10;;;3.80;93.20;;;;;;5057791;28;20074;-65
2022/04/10 00:23:12;;;;;;;5.40;2.22;;;3.70;93.50;;;;;;5057305;28;20033;-66
2022/04/10 00:25:37;;;;;;;6.53;2.80;;;3.70;93.60;;;;;;5059789;28;20020;-66
2022/04/10 00:28:03;;;;;;;5.15;2.15;;;3.70;93.40;;;;;;5060453;28;20035;-66
2022/04/10 00:30:32;;;;;;;4.45;2.22;;;3.60;93.50;;;;;;5054564;28;20027;-66
2022/04/10 00:32:58;;;;;;;5.28;2.28;;;3.60;93.50;;;;;;5055670;28;20043;-64
2022/04/10 00:35:24;;;;;;;4.55;3.10;;;3.60;93.50;;;;;;5038624;28;20041;-66
2022/04/10 00:37:50;;;;;;;4.90;2.88;;;3.60;93.70;;;;;;5057786;28;20029;-66
2022/04/10 00:40:16;;;;;;;6.53;2.67;;;3.50;93.70;;;;;;5059094;28;20757;-66
2022/04/10 00:42:51;;;;;;;6.78;3.20;;;3.60;93.80;;;;;;5042638;28;20085;-66
2022/04/10 00:45:17;;;;;;;6.30;2.72;;;3.60;94.00;;;;;;5058544;28;20043;-66
2022/04/10 00:47:45;;;;;;;5.25;2.75;;;3.60;93.90;;;;;;5042317;28;20020;-66
2022/04/10 00:50:12;;;;;;;5.88;2.90;;;3.50;93.90;;;;;;5055481;28;20127;-66
2022/04/10 00:52:40;;;;;;;8.85;3.33;;;3.50;93.90;;;;;;5038834;28;20496;-66
2022/04/10 00:55:07;;;;;;;5.78;3.65;;;3.50;94.00;;;;;;5040286;28;20045;-66
2022/04/10 00:57:34;;;;;;;7.28;3.28;;;3.50;94.00;;;;;;5058055;28;20028;-65
2022/04/10 01:00:01;;;;;;;4.97;2.58;;;3.50;94.10;;;;;;5041733;28;20033;-66
2022/04/10 01:02:26;;;;;;;5.05;3.03;;;3.50;94.20;;;;;;5059187;28;20032;-66
2022/04/10 01:04:52;;;;;;;6.57;2.63;;;3.50;94.20;;;;;;5060359;28;20017;-66
2022/04/10 01:07:20;;;;;;;9.48;3.05;;;3.50;94.10;;;;;;5059154;28;20111;-65
2022/04/10 01:09:46;;;;;;;5.75;2.90;;;3.50;94.20;;;;;;5042241;28;20058;-67
2022/04/10 01:12:13;;;;;;;5.43;2.67;;;3.50;94.20;;;;;;5062287;28;20033;-65
2022/04/10 01:14:41;;;;;;;5.93;4.18;;;3.50;94.20;;;;;;5046336;28;20025;-66
2022/04/10 01:17:10;;;;;;;7.00;3.10;;;3.50;94.30;;;;;;5040372;28;20031;-66
2022/04/10 01:19:39;;;;;;;7.30;3.10;;;3.50;94.30;;;;;;5043100;28;20017;-65
2022/04/10 01:22:06;;;;;;;8.05;3.83;;;3.50;94.30;;;;;;5039333;28;20668;-66
2022/04/10 01:24:40;;;;;;;8.15;3.40;;;3.50;94.30;;;;;;5043009;28;20125;-66
2022/04/10 01:27:09;;;;;;;6.05;2.92;;;3.50;94.40;;;;;;5035806;28;20025;-66
2022/04/10 01:29:34;;;;;;;4.15;2.97;;;3.40;94.30;;;;;;5064063;28;20036;-65
2022/04/10 01:32:00;;;;;;;5.35;3.50;;;3.50;94.40;;;;;;5058234;28;20021;-65
2022/04/10 01:34:27;;;;;;;9.15;4.10;;;3.50;94.40;;;;;;5038854;28;20028;-66
2022/04/10 01:36:53;;;;;;;7.20;3.35;;;3.50;94.30;;;;;;5042528;28;20047;-65
2022/04/10 01:39:19;;;;;;;7.65;2.85;;;3.50;94.30;;;;;;5041847;28;20131;-66
2022/04/10 01:41:48;;;;;;;5.30;2.90;;;3.50;94.30;;;;;;5045785;28;20077;-66
2022/04/10 01:44:15;;;;;;;5.93;2.92;;;3.60;94.30;;;;;;5045738;28;20476;-65
2022/04/10 01:46:41;;;;;;;8.23;3.50;;;3.50;94.20;;;;;;5041709;28;20036;-65
2022/04/10 01:49:09;;;;;;;5.60;3.20;;;3.50;94.20;;;;;;5037917;28;20032;-66
2022/04/10 01:51:36;;;;;;;4.60;2.80;;;3.50;94.30;;;;;;5042285;28;20506;-66
2022/04/10 01:54:02;;;;;;;7.40;3.03;;;3.50;94.20;;;;;;5040756;28;20029;-66
2022/04/10 01:56:28;;;;;;;6.35;2.90;;;3.50;94.30;;;;;;5041576;28;20036;-65
2022/04/10 01:58:53;;;;;;;5.25;3.22;;;3.50;94.20;;;;;;5043766;28;20063;-66
2022/04/10 02:01:21;;;;;;;7.35;3.35;;;3.50;94.20;;;;;;5040617;28;20067;-66
2022/04/10 02:03:48;;;;;;;5.78;2.85;;;3.50;94.20;;;;;;5045961;28;20370;-66
2022/04/10 02:06:15;;;;;;;4.75;3.20;;;3.50;94.20;;;;;;5036826;28;20027;-66
2022/04/10 02:08:44;;;;;;;6.55;3.35;;;3.50;94.30;;;;;;5040529;28;20059;-65
2022/04/10 02:11:17;;;;;;;5.88;3.22;;;3.50;94.30;;;;;;5043228;28;20031;-66
2022/04/10 02:13:45;;;;;;;5.47;3.05;;;3.50;94.30;;;;;;5043628;28;20039;-66
2022/04/10 02:16:14;;;;;;;5.00;3.20;;;3.50;94.20;;;;;;5043185;28;20032;-66
2022/04/10 02:18:40;;;;;;;5.45;2.55;;;3.50;94.60;;;;;;5062969;28;20040;-66
2022/04/10 02:21:07;;;;;;;6.45;3.03;;;3.50;94.20;;;;;;5044755;28;20028;-66
2022/04/10 02:23:33;;;;;;;10.93;3.05;;;3.60;94.40;;;;;;5042541;28;20029;-66
2022/04/10 02:25:59;;;;;;;9.02;3.20;;;3.80;94.30;;;;;;5043426;28;20040;-66
2022/04/10 02:28:26;;;;;;;6.00;3.10;;;3.90;93.90;;;;;;5043444;28;20021;-66
2022/04/10 02:30:52;;;;;;;5.60;2.97;;;4.00;93.40;;;;;;5062282;28;20020;-66
2022/04/10 02:33:18;;;;;;;6.25;3.33;;;3.90;93.20;;;;;;5043922;28;20645;-66
2022/04/10 02:35:44;;;;;;;4.60;2.30;;;3.80;93.30;;;;;;5059778;28;20047;-66
2022/04/10 02:38:10;;;;;;;3.65;2.53;;;3.80;93.30;;;;;;5044156;28;20036;-66
2022/04/10 02:40:36;;;;;;;4.10;2.45;;;3.70;93.40;;;;;;5062837;28;20037;-66
2022/04/10 02:43:02;;;;;;;9.68;2.80;;;3.70;93.50;;;;;;5043308;28;20385;-66
2022/04/10 02:45:29;;;;;;;4.60;2.28;;;3.60;93.50;;;;;;5060321;28;20082;-66
2022/04/10 02:47:55;;;;;;;5.40;2.65;;;3.60;93.60;;;;;;5044795;28;20033;-66
2022/04/10 02:50:20;;;;;;;9.10;2.33;;;3.60;93.60;;;;;;5040043;28;20497;-66
2022/04/10 02:52:48;;;;;;;11.60;2.50;;;3.50;93.70;;;;;;5059809;28;20032;-66
2022/04/10 02:55:16;;;;;;;7.47;1.90;;;3.50;93.70;;;;;;5040072;28;20037;-65
2022/04/10 02:57:41;;;;;;;4.18;2.35;;;3.50;93.70;;;;;;5026984;28;20386;-66
2022/04/10 03:00:08;;;;;;;4.30;2.20;;;3.50;93.70;;;;;;5060822;28;20070;-66
2022/04/10 03:02:33;;;;;;;5.70;2.42;;;3.40;93.60;;;;;;5040513;28;20519;-66
2022/04/10 03:05:00;;;;;;;9.98;2.72;;;3.40;93.70;;;;;;5061037;28;20024;-66
2022/04/10 03:07:26;;;;;;;8.88;2.17;;;3.40;93.80;;;;;;5034720;28;20025;-66
2022/04/10 03:09:52;;;;;;;5.30;2.17;;;3.40;94.00;;;;;;5040915;28;20035;-66
2022/04/10 03:12:18;;;;;;;8.07;2.40;;;3.30;94.00;;;;;;5039582;28;20577;-66
2022/04/10 03:14:43;;;;;;;12.00;2.60;;;3.30;94.10;;;;;;5062097;28;20025;-66
2022/04/10 03:17:11;;;;;;;8.68;2.38;;;3.30;94.10;;;;;;5043305;28;20029;-66
2022/04/10 03:19:37;;;;;;;6.13;2.28;;;3.30;94.10;;;;;;5044581;28;20020;-66
2022/04/10 03:22:03;;;;;;;10.05;2.28;;;3.30;94.20;;;;;;5036994;28;20027;-66
2022/04/10 03:24:30;;;;;;;8.70;1.83;;;3.40;94.20;;;;;;5035488;28;20063;-66
2022/04/10 03:26:56;;;;;;;7.85;2.17;;;3.40;94.10;;;;;;5058724;28;20028;-66
2022/04/10 03:29:22;;;;;;;7.00;2.88;;;3.40;94.10;;;;;;5038408;28;20025;-66
2022/04/10 03:31:47;;;;;;;7.30;2.42;;;3.50;94.20;;;;;;5041733;28;20024;-66
2022/04/10 03:34:13;;;;;;;10.05;3.40;;;3.50;94.00;;;;;;5041319;28;20097;-66
2022/04/10 03:36:40;;;;;;;5.28;2.15;;;3.60;93.90;;;;;;5042583;28;20139;-66
2022/04/10 03:39:07;;;;;;;6.18;2.10;;;3.50;93.80;;;;;;5037832;28;20505;-66
2022/04/10 03:41:33;;;;;;;5.15;2.63;;;3.60;93.90;;;;;;5039537;28;20061;-66
2022/04/10 03:44:00;;;;;;;3.08;1.98;;;3.60;93.80;;;;;;5040179;28;20050;-66
2022/04/10 03:46:26;;;;;;;5.30;2.28;;;3.80;93.80;;;;;;5040364;28;20379;-66
2022/04/10 03:48:52;;;;;;;6.55;2.47;;;4.00;93.60;;;;;;5058585;28;20381;-66
2022/04/10 03:51:18;;;;;;;7.22;3.30;;;4.10;93.10;;;;;;5061032;28;20657;-66
2022/04/10 03:53:45;;;;;;;9.48;3.15;;;4.10;92.80;;;;;;5044141;28;20123;-66
2022/04/10 03:56:14;;;;;;;9.60;2.35;;;4.00;92.70;;;;;;5042768;28;20404;-66
2022/04/10 03:58:41;;;;;;;10.57;2.35;;;3.90;92.80;;;;;;5041838;28;20469;-66
2022/04/10 04:01:07;;;;;;;7.43;2.58;;;3.80;93.00;;;;;;5040383;28;20035;-66
2022/04/10 04:03:35;;;;;;;6.60;2.53;;;3.80;93.10;;;;;;5042458;28;20153;-66
2022/04/10 04:06:02;;;;;;;12.27;2.75;;;3.70;93.20;;;;;;5041100;28;20090;-65
2022/04/10 04:08:28;;;;;;;8.75;2.60;;;3.70;93.20;;;;;;5043177;28;20021;-66
2022/04/10 04:10:54;;;;;;;5.38;2.42;;;3.60;93.20;;;;;;5041495;28;20472;-66
2022/04/10 04:13:21;;;;;;;12.27;2.83;;;3.60;93.30;;;;;;5042004;28;20052;-66
2022/04/10 04:15:47;;;;;;;10.43;2.80;;;3.60;93.40;;;;;;5043217;28;20070;-66
2022/04/10 04:18:14;;;;;;;10.10;2.30;;;3.50;93.40;;;;;;5040507;28;20408;-66
2022/04/10 04:20:40;;;;;;;8.57;1.92;;;3.50;93.50;;;;;;5026769;28;20420;-66
2022/04/10 04:23:06;;;;;;;7.07;2.63;;;3.50;93.80;;;;;;5041722;28;20036;-66
2022/04/10 04:25:32;;;;;;;9.38;2.65;;;3.80;93.80;;;;;;5039295;28;20036;-66
2022/04/10 04:27:59;;;;;;;7.45;2.30;;;4.00;93.50;;;;;;5040108;28;20044;-66
2022/04/10 04:30:25;;;;;;;7.13;2.25;;;4.20;92.90;;;;;;5040211;28;20093;-66
2022/04/10 04:32:56;;;;;;;9.32;3.08;;;4.40;92.60;;;;;;5045332;28;20060;-66
2022/04/10 04:35:23;;;;;;;9.77;2.35;;;4.50;92.10;;;;;;5058751;28;20088;-65
2022/04/10 04:37:49;;;;;;;8.15;2.80;;;4.60;92.00;;;;;;5044224;28;20025;-66
2022/04/10 04:40:19;;;;;;;10.93;2.67;;;4.80;91.70;;;;;;5040033;28;20052;-66
2022/04/10 04:42:45;;;;;;;9.70;2.15;;;4.90;91.20;;;;;;5037873;28;20057;-66
2022/04/10 04:45:13;;;;;;;4.22;2.10;;;5.00;91.10;;;;;;5039593;28;20515;-66
2022/04/10 04:47:46;;;;;;;12.35;2.42;;;5.10;90.90;;;;;;5040592;28;20021;-66
2022/04/10 04:50:12;;;;;;;5.95;1.95;;;5.20;90.70;;;;;;5039871;28;20405;-66
2022/04/10 04:52:40;;;;;;;5.90;2.15;;;5.20;90.40;;;;;;5041839;28;20048;-66
2022/04/10 04:55:08;;;;;;;7.10;2.17;;;5.20;90.60;;;;;;5041785;28;20025;-66
2022/04/10 04:57:34;;;;;;;7.93;1.83;;;5.20;90.40;;;;;;5043440;28;20036;-66
2022/04/10 05:00:02;;;;;;;6.57;2.10;;;5.10;90.30;;;;;;5035265;28;20029;-66
2022/04/10 05:02:32;;;;;;;6.35;2.13;;;5.00;90.40;;;;;;5038249;28;20054;-66
2022/04/10 05:04:58;;;;;;;8.27;2.00;;;5.00;90.50;;;;;;5039006;28;20178;-66
2022/04/10 05:07:23;;;;;;;11.27;2.28;;;4.90;90.50;;;;;;5040390;28;20017;-66
2022/04/10 05:09:52;;;;;;;9.73;2.20;;;4.90;90.70;;;;;;5042995;28;20063;-66
2022/04/10 05:12:17;;;;;;;8.45;2.60;;;4.90;90.70;;;;;;5039784;28;20060;-66
2022/04/10 05:14:46;;;;;;;9.77;2.00;;;4.90;90.80;;;;;;5035927;28;20071;-66
2022/04/10 05:17:12;;;;;;;8.50;2.65;;;5.10;90.60;;;;;;5042058;28;20028;-66
2022/04/10 05:19:44;;;;;;;11.05;2.33;;;5.20;90.50;;;;;;5038949;28;20033;-66
2022/04/10 05:22:10;;;;;;;8.57;2.72;;;5.60;90.10;;;;;;5039122;28;20032;-66
2022/04/10 05:24:40;;;;;;;11.50;2.28;;;6.10;88.40;;;;;;5039268;28;20769;-66
2022/04/10 05:27:05;;;;;;;7.25;2.10;;;6.30;86.30;;;;;;5032179;28;20036;-66
2022/04/10 05:29:31;;;;;;;9.93;2.42;;;6.30;85.40;;;;;;5039483;28;20024;-66
2022/04/10 05:31:58;;;;;;;8.68;2.00;;;6.40;85.00;;;;;;5036925;28;20031;-66
2022/04/10 05:34:25;;;;;;;9.32;1.98;;;6.40;84.50;;;;;;5054136;28;20051;-66
2022/04/10 05:36:51;;;;;;;7.82;2.20;;;6.30;83.90;;;;;;5039984;28;20401;-66
2022/04/10 05:39:17;;;;;;;7.35;2.33;;;6.20;84.20;;;;;;5046649;28;20039;-66
2022/04/10 05:41:43;;;;;;;10.15;2.13;;;6.20;84.80;;;;;;5041177;28;20032;-66
2022/04/10 05:44:14;;;;;;;11.20;2.15;;;6.30;84.60;;;;;;5036984;28;20496;-67
2022/04/10 05:46:39;;;;;;;7.60;3.25;;;6.40;82.90;;;;;;5039526;28;20025;-66
2022/04/10 05:49:07;;;;;;;4.00;1.45;;;6.40;83.20;;;;;;5040597;28;20069;-66
2022/04/10 05:51:34;;;;;;;9.02;2.40;;;6.50;82.70;;;;;;5038487;28;20033;-66
2022/04/10 05:54:00;;;;;;;7.72;2.22;;;6.50;82.70;;;;;;5041113;28;20060;-66
2022/04/10 05:56:30;;;;;;;7.13;2.83;;;6.70;82.10;;;;;;5040623;28;20522;-66
2022/04/10 05:58:56;;;;;;;6.70;1.70;;;6.70;80.90;;;;;;5043183;28;20677;-66
2022/04/10 06:01:23;;;;;;;8.02;1.77;;;6.80;80.70;;;;;;5058199;28;20036;-66
2022/04/10 06:03:50;;;;;;;6.82;1.55;;;7.10;80.10;;;;;;5060271;28;20025;-67
2022/04/10 06:06:18;;;;;;;9.82;1.83;;;7.50;80.20;;;;;;5061270;28;20509;-66
2022/04/10 06:08:47;;;;;;;10.00;2.22;;;8.30;76.90;;;;;;5063575;28;20074;-66
2022/04/10 06:11:14;;;;;;;7.90;2.20;;;8.90;74.30;;;;;;5043788;28;20542;-66
2022/04/10 06:13:41;;;;;;;11.57;1.90;;;9.20;72.50;;;;;;5042179;28;20384;-65
2022/04/10 06:16:12;;;;;;;8.43;1.85;;;9.10;71.00;;;;;;5037865;28;20055;-66
2022/04/10 06:18:39;;;;;;;5.88;1.73;;;8.80;72.00;;;;;;5040335;28;20865;-66
2022/04/10 06:21:08;;;;;;;11.85;2.05;;;8.70;72.00;;;;;;5060718;28;20028;-66
2022/04/10 06:23:34;;;;;;;9.55;2.17;;;8.70;72.00;;;;;;5042877;28;20062;-66
2022/04/10 06:26:05;;;;;;;7.03;1.63;;;8.70;72.20;;;;;;5043018;28;20069;-66
2022/04/10 06:28:30;;;;;;;9.63;1.85;;;8.80;72.00;;;;;;5044662;28;20093;-66
2022/04/10 06:30:58;;;;;;;3.97;1.52;;;9.20;70.70;;;;;;5041512;28;20176;-66
2022/04/10 06:33:28;;;;;;;6.38;2.00;;;9.30;70.00;;;;;;5038759;28;20048;-67
2022/04/10 06:35:57;;;;;;;8.48;1.50;;;9.20;70.20;;;;;;5045832;28;20472;-66
2022/04/10 06:38:24;;;;;;;6.47;1.80;;;9.10;70.70;;;;;;5040727;28;20029;-66
2022/04/10 06:40:57;;;;;;;6.70;2.03;;;8.90;69.50;;;;;;5043373;28;20028;-66
2022/04/10 06:43:25;;;;;;;4.75;1.80;;;8.80;69.60;;;;;;5043628;28;20068;-67
2022/04/10 06:46:17;;;;;;;10.65;1.90;;;8.70;70.40;;;;;;5053451;28;20024;-66
2022/04/10 06:48:56;;;;;;;6.15;2.03;;;8.70;69.60;;;;;;5035083;28;20082;-67
2022/04/10 06:51:22;;;;;;;8.02;2.08;;;8.50;71.20;;;;;;5057336;28;20025;-66
2022/04/10 06:53:48;;;;;;;9.27;1.85;;;8.50;72.20;;;;;;5055036;28;20027;-66
2022/04/10 06:56:15;;;;;;;13.25;2.30;;;8.60;71.40;;;;;;5038233;28;20039;-66
2022/04/10 06:58:41;;;;;;;8.23;2.10;;;8.90;70.70;;;;;;5055225;28;20102;-66
2022/04/10 07:01:07;;;;;;;7.50;1.45;;;9.10;70.00;;;;;;5043231;28;20043;-66
2022/04/10 07:03:34;;;;;;;7.63;1.80;;;9.10;68.90;;;;;;5042744;28;20135;-66
2022/04/10 07:06:02;;;;;;;8.13;1.70;;;8.80;69.70;;;;;;5043768;28;20029;-67
2022/04/10 07:08:35;;;;;;;4.30;1.20;;;8.60;71.00;;;;;;5041164;28;20024;-67
2022/04/10 07:11:01;;;;;;;9.98;1.90;;;8.40;71.80;;;;;;5041782;28;20024;-67
2022/04/10 07:13:29;;;;;;;9.50;2.10;;;8.40;72.20;;;;;;5041804;28;20039;-66
2022/04/10 07:15:55;;;;;;;9.27;2.05;;;8.50;72.20;;;;;;5061296;28;20036;-67
2022/04/10 07:18:21;;;;;;;10.07;2.00;;;8.50;70.70;;;;;;5043097;28;20033;-66
2022/04/10 07:20:50;;;;;;;8.98;2.15;;;8.50;70.70;;;;;;5043939;28;20047;-66
2022/04/10 07:26:01;;;;;;;9.27;2.58;;;8.60;70.80;;;;;;5054983;28;20024;-68
2022/04/10 07:28:28;;;;;;;5.90;1.48;;;8.80;70.30;;;;;;5042186;28;20025;-62
2022/04/10 07:30:58;;;;;;;8.02;2.30;;;9.10;70.60;;;;;;5042592;28;20416;-68
2022/04/10 07:33:28;;;;;;;6.80;2.63;;;9.50;68.20;;;;;;5036084;28;20063;-66
2022/04/10 07:36:00;;;;;;;6.50;3.67;;;9.70;68.50;;;;;;5039309;28;20077;-66
2022/04/10 07:38:33;;;;;;;11.52;1.73;;;9.70;67.60;;;;;;5056440;28;20852;-66
2022/04/10 07:41:02;;;;;;;9.77;2.42;;;9.60;65.90;;;;;;5038892;28;20249;-66
2022/04/10 07:43:36;;;;;;;8.38;1.80;;;9.60;66.70;;;;;;5034627;28;20032;-67
2022/04/10 07:48:51;;;;;;;9.32;1.48;;;9.20;68.20;;;;;;5034751;28;20212;-68
2022/04/10 07:51:21;;;;;;;7.65;2.10;;;9.10;68.00;;;;;;5034145;28;20673;-67
2022/04/10 07:54:01;;;;;;;3.28;1.45;;;9.20;68.90;;;;;;5039658;28;20119;-66
2022/04/10 07:56:27;;;;;;;14.00;1.88;;;9.50;67.30;;;;;;5054309;28;20500;-67
2022/04/10 07:58:53;;;;;;;9.82;1.50;;;10.00;65.80;;;;;;5033808;28;20037;-67
2022/04/10 08:01:33;;;;;;;8.23;1.67;;;10.80;64.20;;;;;;5051743;28;20104;-68
2022/04/10 08:04:05;;;;;;;8.52;2.15;;;11.80;60.70;;;;;;5037063;28;20570;-65
2022/04/10 08:06:45;;;;;;;8.90;2.53;;;12.50;57.60;;;;;;5036540;28;20029;-67
2022/04/10 08:09:11;;;;;;;6.20;1.70;;;13.10;56.00;;;;;;5049843;28;20043;-63
2022/04/10 08:11:37;;;;;;;11.23;2.13;;;13.00;55.80;;;;;;5049323;28;20171;-67
2022/04/10 08:14:02;;;;;;;9.40;2.08;;;12.90;56.20;;;;;;5030360;28;20060;-67
2022/04/10 08:16:28;;;;;;;9.35;2.50;;;12.70;56.50;;;;;;5049678;28;20028;-64
2022/04/10 08:18:54;;;;;;;9.40;2.25;;;12.40;56.90;;;;;;5050268;28;20029;-68
2022/04/10 08:21:19;;;;;;;6.95;1.95;;;11.80;58.20;;;;;;5050448;28;20853;-66
2022/04/10 08:23:45;;;;;;;13.02;4.00;;;11.70;59.30;;;;;;5050115;28;20346;-68
2022/04/10 08:26:11;;;;;;;10.70;4.00;;;12.40;57.00;;;;;;5050522;28;20033;-68
2022/04/10 08:28:36;;;;;;;13.40;2.65;;;13.30;55.30;;;;;;5052415;28;20029;-66
2022/04/10 08:31:02;;;;;;;9.93;2.28;;;14.10;53.00;;;;;;5051347;28;20031;-66
2022/04/10 08:33:28;;;;;;;8.52;2.42;;;14.90;50.60;;;;;;5051732;28;20052;-66
2022/04/10 08:35:53;;;;;;;12.93;3.35;;;15.70;48.80;;;;;;5052454;28;20039;-66
2022/04/10 08:38:19;;;;;;;9.40;2.95;;;16.40;46.40;;;;;;5050846;28;20474;-66
2022/04/10 08:40:46;;;;;;;9.75;2.80;;;16.40;46.30;;;;;;5051268;28;20476;-67
2022/04/10 08:43:12;;;;;;;10.90;3.00;;;16.20;46.20;;;;;;5051047;28;20033;-66
2022/04/10 08:45:39;;;;;;;8.05;2.17;;;15.70;46.30;;;;;;5056990;28;20446;-66
2022/04/10 08:48:05;;;;;;;12.20;4.47;;;15.60;47.30;;;;;;5051588;28;20038;-66
2022/04/10 08:50:31;;;;;;;10.90;3.00;;;15.60;46.10;;;;;;5052364;28;20067;-67
2022/04/10 08:52:58;;;;;;;10.00;3.95;;;15.70;47.50;;;;;;5052282;28;20062;-67
2022/04/10 08:55:25;;;;;;;8.98;3.88;;;15.10;47.90;;;;;;5049188;28;20048;-67
2022/04/10 08:57:50;;;;;;;10.02;2.78;;;14.70;49.10;;;;;;5052512;28;20404;-67
2022/04/10 09:00:18;;;;;;;11.32;2.75;;;14.40;49.80;;;;;;5049751;28;20037;-66
2022/04/10 09:02:52;;;;;;;7.90;2.42;;;14.20;50.20;;;;;;5035769;28;20024;-66
2022/04/10 09:05:19;;;;;;;9.70;2.33;;;14.20;49.60;;;;;;5051210;28;20536;-66
2022/04/10 09:08:05;;;;;;;9.95;2.88;;;14.00;50.10;;;;;;5050558;28;20056;-66
2022/04/10 09:10:51;;;;;;;8.15;2.00;;;13.70;50.80;;;;;;5052110;28;20534;-67
2022/04/10 09:13:25;;;;;;;7.40;1.87;;;13.50;51.60;;;;;;5052348;28;20040;-66
2022/04/10 09:15:52;;;;;;;9.63;2.03;;;14.50;50.50;;;;;;5052699;28;20286;-67
2022/04/10 09:18:18;;;;;;;6.60;2.42;;;16.40;46.90;;;;;;5051470;28;20029;-67
2022/04/10 09:21:07;;;;;;;10.68;2.03;;;17.40;44.40;;;;;;5050363;28;20563;-67
2022/04/10 09:23:34;;;;;;;6.80;2.00;;;16.80;43.30;;;;;;5048788;28;20033;-68
2022/04/10 09:26:00;;;;;;;6.70;1.40;;;15.80;45.50;;;;;;5051845;28;20029;-67
2022/04/10 09:28:46;;;;;;;8.82;2.05;;;15.10;46.30;;;;;;5052814;28;20025;-68
2022/04/10 09:31:31;;;;;;;7.05;1.70;;;14.20;47.90;;;;;;5050567;28;20432;-65
2022/04/10 09:33:59;;;;;;;8.60;1.98;;;13.20;49.30;;;;;;5054622;28;20110;-66
2022/04/10 09:36:35;;;;;;;9.68;2.08;;;13.20;51.20;;;;;;5039622;28;20655;-66
2022/04/10 09:39:02;;;;;;;;;;;13.20;50.50;;;;;;5052818;28;20063;-66
2022/04/10 09:41:28;;;;;;;8.05;2.00;;;13.00;51.10;;;;;;5051561;28;19918;-66
2022/04/10 09:43:58;;;;;;;8.80;2.10;;;12.60;53.70;;;;;;5052261;28;20033;-66
2022/04/10 09:46:23;;;;;;;7.57;2.17;;;13.80;53.70;;;;;;5052831;28;20059;-67
2022/04/10 09:48:49;;;;;;;6.95;2.20;;;17.10;47.20;;;;;;5054183;28;20123;-66
2022/04/10 09:51:15;;;;;;;7.07;1.90;;;20.80;39.50;;;;;;5054219;28;20170;-67
2022/04/10 09:53:41;;;;;;;8.07;1.83;;;24.10;34.20;;;;;;5053262;28;20106;-67
2022/04/10 09:56:07;;;;;;;7.75;2.17;;;27.20;30.30;;;;;;5053273;28;20074;-67
2022/04/10 09:58:34;;;;;;;7.28;1.85;;;26.90;28.30;;;;;;5054490;28;20059;-67
2022/04/10 10:01:03;;;;;;;8.20;2.10;;;25.50;29.50;;;;;;5056107;28;20507;-67
2022/04/10 10:03:30;;;;;;;8.18;2.00;;;25.60;30.80;;;;;;5054915;28;20113;-66
2022/04/10 10:05:58;;;;;;;7.45;2.08;;;27.90;28.30;;;;;;5055416;28;20510;-67
2022/04/10 10:08:25;;;;;;;12.25;2.60;;;28.40;27.00;;;;;;5055391;28;20032;-66
2022/04/10 10:10:51;;;;;;;5.63;1.80;;;26.00;27.70;;;;;;5052694;28;20143;-66
2022/04/10 10:13:17;;;;;;;7.47;2.00;;;23.50;30.30;;;;;;5053818;28;20028;-67
2022/04/10 10:15:44;;;;;;;9.80;2.50;;;21.40;33.40;;;;;;5052756;28;20035;-66
2022/04/10 10:18:12;;;;;;;5.75;1.65;;;19.40;36.40;;;;;;5054387;28;20032;-67
2022/04/10 10:20:42;;;;;;;4.45;1.67;;;17.70;38.80;;;;;;5055232;28;20036;-67
2022/04/10 10:23:10;;;;;;;6.90;1.75;;;16.60;41.60;;;;;;5055097;28;20586;-66
2022/04/10 10:25:54;;;;;;;7.65;1.88;;;16.00;42.90;;;;;;5052711;28;20025;-67
2022/04/10 10:28:48;;;;;;;5.28;1.45;;;16.80;42.40;;;;;;5054665;28;20035;-67
2022/04/10 10:31:35;;;;;;;7.07;1.60;;;16.80;40.90;;;;;;5056023;28;20037;-66
2022/04/10 10:34:05;;;;;;;7.00;1.63;;;15.90;41.30;;;;;;5055281;28;20630;-67
2022/04/10 10:36:31;;;;;;;7.85;1.42;;;15.00;43.10;;;;;;5037331;28;20093;-67
2022/04/10 10:38:58;;;;;;;6.18;1.60;;;14.30;45.80;;;;;;5056557;28;20132;-67
2022/04/10 10:41:23;;;;;;;6.55;2.13;;;13.80;48.50;;;;;;5055160;28;20059;-67
2022/04/10 10:43:51;;;;;;;9.32;1.70;;;13.80;48.00;;;;;;5054348;28;20473;-67
2022/04/10 10:46:20;;;;;;;8.43;1.48;;;14.00;49.00;;;;;;5054258;28;20072;-67
2022/04/10 10:48:47;;;;;;;8.07;1.58;;;14.70;46.70;;;;;;5055708;28;20062;-67
2022/04/10 10:51:12;;;;;;;7.60;1.73;;;15.00;44.30;;;;;;5055109;28;20548;-67
2022/04/10 10:53:46;;;;;;;8.48;2.35;;;14.90;44.70;;;;;;5052703;28;20036;-68
2022/04/10 10:56:26;;;;;;;6.85;2.30;;;14.50;46.00;;;;;;5053504;28;20055;-67
2022/04/10 10:58:55;;;;;;;10.45;3.22;;;14.20;45.60;;;;;;5052512;28;20795;-66
2022/04/10 11:01:28;;;;;;;5.50;1.80;;;14.10;45.10;;;;;;5055692;28;20164;-67
2022/04/10 11:04:06;;;;;;;4.50;1.50;;;14.10;46.20;;;;;;5055267;28;20047;-68
2022/04/10 11:06:44;;;;;;;7.05;1.65;;;13.90;45.20;;;;;;5052359;28;20020;-66
2022/04/10 11:09:30;;;;;;;4.40;1.48;;;13.90;45.70;;;;;;5053694;28;20037;-67
2022/04/10 11:11:58;;;;;;;3.20;1.10;;;13.90;45.90;;;;;;5051653;28;20575;-67
2022/04/10 11:14:41;;;;;;;6.85;1.40;;;13.80;44.70;;;;;;5052296;28;20041;-67
2022/04/10 11:17:16;;;;;;;7.45;1.42;;;13.50;46.70;;;;;;5051940;28;20493;-67
2022/04/10 11:19:54;;;;;;;6.57;1.38;;;13.00;47.70;;;;;;5053346;28;20028;-67
2022/04/10 11:22:31;;;;;;;5.82;1.30;;;12.60;49.30;;;;;;5052645;28;20086;-67
2022/04/10 11:24:59;;;;;;;5.75;1.45;;;12.80;50.60;;;;;;5054262;28;20033;-67
2022/04/10 11:27:53;;;;;;;5.65;1.50;;;13.40;48.60;;;;;;5051621;28;20826;-67
2022/04/10 11:30:23;;;;;;;6.93;1.33;;;13.90;46.20;;;;;;5052380;28;20082;-67
2022/04/10 11:32:54;;;;;;;4.55;1.25;;;14.50;46.90;;;;;;5050754;28;20530;-67
2022/04/10 11:35:30;;;;;;;6.50;1.45;;;14.80;45.00;;;;;;5052466;28;20195;-67
2022/04/10 11:37:57;;;;;;;;;;;15.10;43.10;;;;;;5054284;28;20158;-67
2022/04/10 11:40:30;;;;;;;;;;;14.90;43.40;;;;;;5055567;28;20249;-67
2022/04/10 11:42:58;;;;;;;6.68;1.50;;;15.10;43.30;;;;;;5052270;28;19981;-68
2022/04/10 11:45:31;;;;;;;5.05;1.10;;;15.20;43.70;;;;;;5050616;28;20024;-68
2022/04/10 11:47:58;;;;;;;6.40;1.40;;;15.10;43.70;;;;;;5050640;28;20064;-68
2022/04/10 11:50:26;;;;;;;4.80;1.23;;;14.90;44.70;;;;;;5052823;28;20519;-68
2022/04/10 11:53:05;;;;;;;4.72;1.70;;;14.80;45.90;;;;;;5052856;28;20032;-68
2022/04/10 11:55:35;;;;;;;5.13;1.30;;;14.60;44.00;;;;;;5053812;28;20041;-68
2022/04/10 11:58:13;;;;;;;2.80;1.00;;;14.40;45.70;;;;;;5052405;28;20032;-68
2022/04/10 12:00:53;;;;;;;3.72;1.33;;;14.20;45.10;;;;;;5051015;28;20039;-67
2022/04/10 12:03:20;;;;;;;5.28;1.40;;;14.60;47.00;;;;;;5053709;28;20028;-68
2022/04/10 12:05:47;;;;;;;2.83;0.90;;;14.90;44.40;;;;;;5053762;28;20082;-68
2022/04/10 12:08:13;;;;;;;11.27;3.92;;;14.90;43.50;;;;;;5053189;28;20039;-67
2022/04/10 12:10:39;;;;;;;2.35;0.93;;;14.60;43.50;;;;;;5053022;28;20028;-68
2022/04/10 12:13:05;;;;;;;5.88;1.70;;;14.70;44.90;;;;;;5053070;28;20033;-68
2022/04/10 12:15:32;;;;;;;5.05;1.90;;;15.00;45.20;;;;;;5052850;28;20086;-68
2022/04/10 12:18:07;;;;;;;4.50;1.80;;;15.60;44.60;;;;;;5053364;28;20125;-68
2022/04/10 12:20:37;;;;;;;5.13;1.23;;;16.10;43.70;;;;;;5053430;28;20055;-68
2022/04/10 12:23:19;;;;;;;6.03;1.70;;;16.40;41.90;;;;;;5037794;28;20032;-68
2022/04/10 12:25:46;;;;;;;8.10;1.83;;;16.40;41.20;;;;;;5052628;28;20043;-68
2022/04/10 12:28:11;;;;;;;4.53;1.50;;;15.90;42.20;;;;;;5038316;28;20040;-68
2022/04/10 12:30:38;;;;;;;5.03;1.10;;;15.30;43.40;;;;;;5051995;28;20073;-68
2022/04/10 12:33:07;;;;;;;4.25;1.33;;;14.70;44.20;;;;;;5051040;28;20101;-68
2022/04/10 12:35:38;;;;;;;4.28;1.20;;;14.00;49.30;;;;;;5052726;28;20036;-68
2022/04/10 12:38:03;;;;;;;3.42;1.23;;;13.40;53.50;;;;;;5052241;28;20036;-68
2022/04/10 12:40:29;;;;;;;5.00;2.00;;;12.80;56.80;;;;;;5053225;28;20037;-68
2022/04/10 12:43:00;;;;;;;6.60;1.92;;;12.50;59.30;;;;;;5052664;28;20032;-68
2022/04/10 12:45:29;;;;;;;7.43;1.75;;;12.30;60.40;;;;;;5048691;28;20495;-67
2022/04/10 12:47:55;;;;;;;5.70;2.25;;;12.40;59.90;;;;;;5049163;28;20024;-67
2022/04/10 12:50:23;;;;;;;6.82;1.63;;;12.40;59.50;;;;;;5033704;28;20050;-69
2022/04/10 12:52:52;;;;;;;5.53;1.65;;;12.40;60.20;;;;;;5050550;28;20102;-67
2022/04/10 12:55:23;;;;;;;15.70;3.28;;;12.30;59.90;;;;;;5050759;28;20025;-67
2022/04/10 12:57:59;;;;;;;6.53;1.98;;;11.80;61.20;;;;;;5051034;28;20469;-67
2022/04/10 13:00:29;;;;;;;;;;;11.30;63.70;;;;;;5051453;28;20119;-67
2022/04/10 13:02:55;;;;;;;6.05;1.38;;;10.80;65.80;;;;;;5048283;28;19912;-67
2022/04/10 13:05:21;;;;;;;5.03;1.50;;;10.40;68.20;;;;;;5049451;28;20033;-67